Time;durP1;ratioP1;P1;durP2;ratioP2;P2;SDS_P1;SDS_P2;PMS_P1;PMS_P2;Temp;Humidity;BMP_temperature;BMP_pressure;BME280_temperature;BME280_humidity;BME280_pressure;Samples;Min_cycle;Max_cycle;Signal;HPM_P1;HPM_P2
2022/10/21 00:01:14;;;;;;;3.28;1.58;;;18.90;99.90;;;;;;5052810;28;20027;-83
2022/10/21 00:03:40;;;;;;;3.65;1.60;;;18.90;99.90;;;;;;5043403;28;20024;-82
2022/10/21 00:06:06;;;;;;;4.10;1.90;;;18.80;99.90;;;;;;5065372;28;20024;-83
2022/10/21 00:08:32;;;;;;;4.13;1.90;;;18.80;99.90;;;;;;5061115;28;20028;-81
2022/10/21 00:11:01;;;;;;;3.23;1.73;;;18.70;99.90;;;;;;5063493;28;20264;-82
2022/10/21 00:13:28;;;;;;;3.77;1.80;;;18.70;99.90;;;;;;5056597;28;20957;-82
2022/10/21 00:16:07;;;;;;;3.70;1.77;;;18.70;99.90;;;;;;5064760;28;20044;-82
2022/10/21 00:18:34;;;;;;;3.85;1.90;;;18.70;99.90;;;;;;5060689;28;20377;-82
2022/10/21 00:21:04;;;;;;;3.60;1.70;;;18.60;99.90;;;;;;5057364;28;20028;-83
2022/10/21 00:23:30;;;;;;;3.15;1.50;;;18.60;99.90;;;;;;5042231;28;20568;-82
2022/10/21 00:25:59;;;;;;;3.43;1.60;;;18.60;99.90;;;;;;5054228;28;20038;-82
2022/10/21 00:28:25;;;;;;;3.08;1.35;;;18.60;99.90;;;;;;5050399;28;20066;-82
2022/10/21 00:30:51;;;;;;;2.05;1.30;;;18.50;99.90;;;;;;5043829;28;20052;-81
2022/10/21 00:33:17;;;;;;;3.70;1.40;;;18.50;99.90;;;;;;5067006;28;20098;-82
2022/10/21 00:35:42;;;;;;;2.47;1.20;;;18.50;99.90;;;;;;5060292;28;20028;-82
2022/10/21 00:38:08;;;;;;;2.70;1.20;;;18.50;99.90;;;;;;5058287;28;20512;-82
2022/10/21 00:40:34;;;;;;;2.45;1.40;;;18.40;99.90;;;;;;5042617;28;20490;-82
2022/10/21 00:42:59;;;;;;;3.83;1.40;;;18.40;99.90;;;;;;5040343;28;20048;-82
2022/10/21 00:45:28;;;;;;;2.38;1.20;;;18.40;99.90;;;;;;5068147;28;20155;-82
2022/10/21 00:48:00;;;;;;;3.47;1.20;;;18.40;99.90;;;;;;5049352;28;20028;-82
2022/10/21 00:50:40;;;;;;;3.00;1.17;;;18.30;99.90;;;;;;5055417;28;20181;-82
2022/10/21 00:53:09;;;;;;;2.90;1.13;;;18.20;99.90;;;;;;5054331;28;20024;-82
2022/10/21 00:55:39;;;;;;;2.25;1.13;;;18.20;99.90;;;;;;5043367;28;20020;-82
2022/10/21 00:58:06;;;;;;;2.85;1.10;;;18.10;99.90;;;;;;5051803;28;20028;-82
2022/10/21 01:00:31;;;;;;;2.57;1.20;;;18.10;99.90;;;;;;5049499;28;20056;-83
2022/10/21 01:02:57;;;;;;;3.38;1.20;;;18.10;99.90;;;;;;5064777;28;20119;-83
2022/10/21 01:05:23;;;;;;;2.23;1.00;;;18.00;99.90;;;;;;5034713;28;20157;-83
2022/10/21 01:07:50;;;;;;;1.58;1.02;;;17.90;99.90;;;;;;5064066;28;20081;-83
2022/10/21 01:10:16;;;;;;;1.75;0.90;;;17.90;99.90;;;;;;5054670;28;20611;-83
2022/10/21 01:13:07;;;;;;;2.65;1.00;;;17.90;99.90;;;;;;5052573;28;20036;-83
2022/10/21 01:15:40;;;;;;;2.78;1.17;;;17.80;99.90;;;;;;5038276;28;20334;-83
2022/10/21 01:18:17;;;;;;;2.70;1.20;;;17.70;99.90;;;;;;5058989;28;20632;-83
2022/10/21 01:21:19;;;;;;;2.75;1.00;;;17.70;99.90;;;;;;5054388;28;20040;-83
2022/10/21 01:24:03;;;;;;;4.03;1.10;;;17.70;99.90;;;;;;5067891;28;20047;-83
2022/10/21 01:26:58;;;;;;;3.58;1.15;;;17.70;99.90;;;;;;5038718;28;20253;-83
2022/10/21 01:29:43;;;;;;;3.25;0.90;;;17.60;99.90;;;;;;5025697;28;20294;-83
2022/10/21 01:32:33;;;;;;;2.30;1.00;;;17.60;99.90;;;;;;5041087;28;20028;-83
2022/10/21 01:35:49;;;;;;;3.05;1.00;;;17.50;99.90;;;;;;5062066;28;20029;-83
2022/10/21 01:38:37;;;;;;;2.22;0.82;;;17.50;99.90;;;;;;4959525;28;20414;-83
2022/10/21 01:41:50;;;;;;;1.50;0.95;;;17.40;99.90;;;;;;4996052;28;20063;-83
2022/10/21 01:44:34;;;;;;;1.73;0.90;;;17.40;99.90;;;;;;4956280;28;20100;-83
2022/10/21 01:47:09;;;;;;;2.90;0.80;;;17.30;99.90;;;;;;5057155;28;20083;-83
2022/10/21 01:49:45;;;;;;;2.33;0.90;;;17.20;99.90;;;;;;5038449;28;20539;-83
2022/10/21 01:52:11;;;;;;;2.10;1.10;;;17.20;99.90;;;;;;5055491;28;20063;-83
2022/10/21 01:54:59;;;;;;;3.38;1.20;;;17.10;99.90;;;;;;5042501;28;20460;-83
2022/10/21 01:57:29;;;;;;;2.38;0.85;;;17.10;99.90;;;;;;5050674;28;20564;-83
2022/10/21 01:59:58;;;;;;;1.60;0.73;;;17.10;99.90;;;;;;5056934;28;20020;-83
2022/10/21 02:02:28;;;;;;;1.92;1.00;;;17.00;99.90;;;;;;5041156;28;20086;-82
2022/10/21 02:04:57;;;;;;;1.42;0.90;;;17.00;99.90;;;;;;5045099;28;20174;-83
2022/10/21 02:07:23;;;;;;;1.75;0.95;;;17.00;99.90;;;;;;5054308;28;20541;-83
2022/10/21 02:09:48;;;;;;;1.80;0.97;;;16.90;99.90;;;;;;5046698;28;20028;-83
2022/10/21 02:12:15;;;;;;;2.78;0.90;;;16.80;99.90;;;;;;5063362;28;20028;-83
2022/10/21 02:14:46;;;;;;;2.27;1.00;;;16.80;99.90;;;;;;5056966;28;20112;-83
2022/10/21 02:17:15;;;;;;;2.10;0.90;;;16.80;99.90;;;;;;5060332;28;20648;-82
2022/10/21 02:19:41;;;;;;;2.70;0.90;;;16.80;99.90;;;;;;5056242;28;20020;-83
2022/10/21 02:22:11;;;;;;;2.92;0.90;;;16.70;99.90;;;;;;5041281;28;20469;-82
2022/10/21 02:25:15;;;;;;;2.83;0.90;;;16.70;99.90;;;;;;5067164;28;20032;-83
2022/10/21 02:27:41;;;;;;;1.33;0.90;;;16.60;99.90;;;;;;5067234;28;20066;-83
2022/10/21 02:30:07;;;;;;;3.15;0.90;;;16.60;99.90;;;;;;5037927;28;20036;-84
2022/10/21 02:32:52;;;;;;;3.38;1.00;;;16.50;99.90;;;;;;5064883;28;20028;-83
2022/10/21 02:35:38;;;;;;;2.17;0.90;;;16.50;99.90;;;;;;5040552;28;20136;-83
2022/10/21 02:38:09;;;;;;;2.33;0.90;;;16.50;99.90;;;;;;5066127;28;20024;-83
2022/10/21 02:40:58;;;;;;;1.80;0.80;;;16.40;99.90;;;;;;5068412;28;20021;-83
2022/10/21 02:43:26;;;;;;;1.95;0.80;;;16.40;99.90;;;;;;5042055;28;20059;-83
2022/10/21 02:45:57;;;;;;;2.65;0.90;;;16.30;99.90;;;;;;5032584;28;20028;-83
2022/10/21 02:48:23;;;;;;;1.33;0.70;;;16.30;99.90;;;;;;5058004;28;20624;-83
2022/10/21 02:50:49;;;;;;;1.47;0.77;;;16.20;99.90;;;;;;5063835;28;20035;-83
2022/10/21 02:53:15;;;;;;;1.30;0.80;;;16.20;99.90;;;;;;5043679;28;20818;-83
2022/10/21 02:55:41;;;;;;;2.33;0.80;;;16.10;99.90;;;;;;5073806;28;20016;-83
2022/10/21 02:58:07;;;;;;;1.83;0.80;;;16.10;99.90;;;;;;5053764;28;20114;-83
2022/10/21 03:00:32;;;;;;;2.13;0.80;;;16.10;99.90;;;;;;5048414;28;20040;-83
2022/10/21 03:02:58;;;;;;;1.30;0.70;;;16.00;99.90;;;;;;5041272;28;20029;-83
2022/10/21 03:05:23;;;;;;;1.57;0.70;;;16.00;99.90;;;;;;5050892;28;20209;-83
2022/10/21 03:07:49;;;;;;;2.60;0.77;;;15.90;99.90;;;;;;5048654;28;21389;-83
2022/10/21 03:10:15;;;;;;;1.70;0.70;;;15.90;99.90;;;;;;5055796;28;20020;-83
2022/10/21 03:12:41;;;;;;;1.58;0.80;;;15.90;99.90;;;;;;5071569;28;20055;-83
2022/10/21 03:15:07;;;;;;;1.73;0.77;;;15.80;99.90;;;;;;5062879;28;20115;-83
2022/10/21 03:17:33;;;;;;;1.40;0.77;;;15.80;99.90;;;;;;5044769;28;20336;-83
2022/10/21 03:19:58;;;;;;;2.08;0.80;;;15.80;99.90;;;;;;5058738;28;20020;-83
2022/10/21 03:22:24;;;;;;;1.20;0.73;;;15.80;99.90;;;;;;5055777;28;20058;-83
2022/10/21 03:24:49;;;;;;;2.07;0.80;;;15.70;99.90;;;;;;5050106;28;20051;-83
2022/10/21 03:27:15;;;;;;;1.60;0.80;;;15.70;99.90;;;;;;5047764;28;20471;-83
2022/10/21 03:29:40;;;;;;;1.57;0.80;;;15.70;99.90;;;;;;5053960;28;20492;-83
2022/10/21 03:32:06;;;;;;;1.67;0.70;;;15.70;99.90;;;;;;5025223;28;20103;-82
2022/10/21 03:34:32;;;;;;;2.03;0.73;;;15.70;99.90;;;;;;5061806;28;20040;-83
2022/10/21 03:36:57;;;;;;;1.90;0.77;;;15.70;99.90;;;;;;5061306;28;20058;-82
2022/10/21 03:39:23;;;;;;;1.50;0.80;;;15.70;99.90;;;;;;5042466;28;20744;-83
2022/10/21 03:41:48;;;;;;;1.67;0.70;;;15.70;99.90;;;;;;5063075;28;20069;-83
2022/10/21 03:44:14;;;;;;;2.00;0.80;;;15.60;99.90;;;;;;5055270;28;20122;-83
2022/10/21 03:46:39;;;;;;;2.80;0.90;;;15.60;99.90;;;;;;5040297;28;20584;-83
2022/10/21 03:49:05;;;;;;;3.40;0.80;;;15.60;99.90;;;;;;5046821;28;20031;-83
2022/10/21 03:51:31;;;;;;;1.75;0.80;;;15.50;99.90;;;;;;5059889;28;20028;-82
2022/10/21 03:53:56;;;;;;;2.27;0.80;;;15.50;99.90;;;;;;5057498;28;20089;-83
2022/10/21 03:56:22;;;;;;;0.82;0.60;;;15.50;99.90;;;;;;5039667;28;20384;-83
2022/10/21 03:58:48;;;;;;;2.43;0.90;;;15.50;99.90;;;;;;5061853;28;20110;-83
2022/10/21 04:01:13;;;;;;;1.48;0.70;;;15.40;99.90;;;;;;5044374;28;20039;-83
2022/10/21 04:03:39;;;;;;;1.70;0.80;;;15.40;99.90;;;;;;5046037;28;20031;-83
2022/10/21 04:06:05;;;;;;;2.67;0.90;;;15.40;99.90;;;;;;5061568;28;20381;-83
2022/10/21 04:08:31;;;;;;;0.97;0.60;;;15.40;99.90;;;;;;5050263;28;20511;-83
2022/10/21 04:10:57;;;;;;;0.65;0.60;;;15.30;99.90;;;;;;5039045;28;20023;-83
2022/10/21 04:13:22;;;;;;;0.90;0.50;;;15.30;99.90;;;;;;5057229;28;20377;-83
2022/10/21 04:15:48;;;;;;;2.67;0.90;;;15.30;99.90;;;;;;5062032;28;20016;-83
2022/10/21 04:18:14;;;;;;;1.17;0.70;;;15.30;99.90;;;;;;5061447;28;20035;-83
2022/10/21 04:20:39;;;;;;;3.15;0.90;;;15.30;99.90;;;;;;5035428;28;20171;-83
2022/10/21 04:23:05;;;;;;;1.33;0.80;;;15.30;99.90;;;;;;5062524;28;20032;-83
2022/10/21 04:25:31;;;;;;;1.10;0.85;;;15.20;99.90;;;;;;5028050;28;20170;-83
2022/10/21 04:27:56;;;;;;;2.90;0.90;;;15.20;99.90;;;;;;5063072;28;20397;-83
2022/10/21 04:30:22;;;;;;;2.05;0.80;;;15.30;99.90;;;;;;5038658;28;20031;-83
2022/10/21 04:32:49;;;;;;;1.20;0.90;;;15.20;99.90;;;;;;5054264;28;20063;-83
2022/10/21 04:35:16;;;;;;;2.45;1.00;;;15.30;99.90;;;;;;5042926;28;20384;-83
2022/10/21 04:37:43;;;;;;;1.48;0.88;;;15.20;99.90;;;;;;5044029;28;20667;-83
2022/10/21 04:40:09;;;;;;;2.10;0.80;;;15.30;99.90;;;;;;5055185;28;20024;-83
2022/10/21 04:42:34;;;;;;;1.30;0.80;;;15.20;99.90;;;;;;5051861;28;20133;-83
2022/10/21 04:45:00;;;;;;;1.73;0.98;;;15.30;99.90;;;;;;5053452;28;20118;-83
2022/10/21 04:47:26;;;;;;;3.33;1.00;;;15.30;99.90;;;;;;5057138;28;20717;-83
2022/10/21 04:49:51;;;;;;;1.67;0.82;;;15.30;99.90;;;;;;5070537;27;20340;-83
2022/10/21 04:52:17;;;;;;;2.63;1.00;;;15.30;99.90;;;;;;5044827;28;20204;-83
2022/10/21 04:54:43;;;;;;;3.60;0.98;;;15.30;99.90;;;;;;5059413;28;20033;-83
2022/10/21 04:57:08;;;;;;;2.93;1.00;;;15.30;99.90;;;;;;5034775;28;20024;-83
2022/10/21 04:59:34;;;;;;;2.22;1.00;;;15.40;99.90;;;;;;5061517;28;20028;-83
2022/10/21 05:01:59;;;;;;;2.33;1.00;;;15.40;99.90;;;;;;5036997;28;20043;-83
2022/10/21 05:04:25;;;;;;;3.03;1.20;;;15.40;99.90;;;;;;5050360;28;20168;-84
2022/10/21 05:06:51;;;;;;;3.28;1.08;;;15.40;99.90;;;;;;5022390;28;24323;-83
2022/10/21 05:09:16;;;;;;;2.37;1.00;;;15.40;99.90;;;;;;5043305;28;20176;-83
2022/10/21 05:11:42;;;;;;;2.17;0.93;;;15.50;99.90;;;;;;5027055;28;20251;-83
2022/10/21 05:14:08;;;;;;;1.97;1.30;;;15.50;99.90;;;;;;5037610;28;20040;-83
2022/10/21 05:16:33;;;;;;;2.40;1.40;;;15.40;99.90;;;;;;5044389;28;20396;-83
2022/10/21 05:18:59;;;;;;;4.00;1.37;;;15.50;99.90;;;;;;5060124;28;20043;-83
2022/10/21 05:21:25;;;;;;;3.97;1.42;;;15.50;99.90;;;;;;5058421;28;20021;-83
2022/10/21 05:23:50;;;;;;;4.10;1.50;;;15.50;99.90;;;;;;5046788;28;20141;-83
2022/10/21 05:26:16;;;;;;;3.63;1.47;;;15.50;99.90;;;;;;5050031;28;20032;-83
2022/10/21 05:28:41;;;;;;;2.92;1.35;;;15.50;99.90;;;;;;5049591;28;20021;-83
2022/10/21 05:31:07;;;;;;;2.07;1.30;;;15.60;99.90;;;;;;5042538;28;21714;-84
2022/10/21 05:33:33;;;;;;;3.47;1.70;;;15.50;99.90;;;;;;5032439;28;20599;-84
2022/10/21 05:36:06;;;;;;;3.47;1.40;;;15.60;99.90;;;;;;5057221;28;20669;-83
2022/10/21 05:38:32;;;;;;;2.97;1.45;;;15.60;99.90;;;;;;5039229;28;20020;-83
2022/10/21 05:40:58;;;;;;;2.25;1.23;;;15.60;99.90;;;;;;5053285;28;20103;-83
2022/10/21 05:43:24;;;;;;;3.53;1.20;;;15.60;99.90;;;;;;5031763;28;20024;-83
2022/10/21 05:45:49;;;;;;;2.40;1.20;;;15.60;99.90;;;;;;5070391;27;20648;-83
2022/10/21 05:48:19;;;;;;;1.87;0.93;;;15.70;99.90;;;;;;5048786;28;20032;-83
2022/10/21 05:50:46;;;;;;;1.90;1.00;;;15.70;99.90;;;;;;5061952;28;20048;-83
2022/10/21 05:53:12;;;;;;;4.00;1.10;;;15.70;99.90;;;;;;5045127;28;20039;-83
2022/10/21 05:55:38;;;;;;;1.88;1.00;;;15.70;99.90;;;;;;5018108;28;20070;-83
2022/10/21 05:58:04;;;;;;;3.80;1.10;;;15.80;99.90;;;;;;5039717;28;20410;-83
2022/10/21 06:00:29;;;;;;;2.53;1.00;;;15.80;99.90;;;;;;5056026;28;20031;-84
2022/10/21 06:02:55;;;;;;;2.00;0.93;;;15.80;99.90;;;;;;5044507;28;20063;-84
2022/10/21 06:05:21;;;;;;;3.95;1.10;;;15.90;99.90;;;;;;5055943;28;20366;-84
2022/10/21 06:07:47;;;;;;;1.47;1.10;;;15.90;99.90;;;;;;5060518;28;20036;-84
2022/10/21 06:10:15;;;;;;;2.58;1.10;;;15.90;99.90;;;;;;5031605;28;20036;-84
2022/10/21 06:12:41;;;;;;;2.38;1.05;;;15.90;99.90;;;;;;5056158;28;20546;-84
2022/10/21 06:15:07;;;;;;;1.90;0.93;;;15.90;99.90;;;;;;5047488;28;20032;-83
2022/10/21 06:17:32;;;;;;;2.58;1.25;;;15.90;99.90;;;;;;5039103;28;20417;-83
2022/10/21 06:19:59;;;;;;;1.85;0.90;;;16.00;99.90;;;;;;5062088;28;20016;-84
2022/10/21 06:22:24;;;;;;;2.73;1.10;;;16.00;99.90;;;;;;5049466;28;20036;-84
2022/10/21 06:24:50;;;;;;;1.40;1.00;;;16.00;99.90;;;;;;5026707;28;20805;-83
2022/10/21 06:27:15;;;;;;;2.43;1.10;;;16.00;99.90;;;;;;5057728;28;20081;-84
2022/10/21 06:29:41;;;;;;;3.85;1.17;;;16.00;99.90;;;;;;5053498;28;20549;-84
2022/10/21 06:32:07;;;;;;;2.13;1.00;;;16.00;99.90;;;;;;5049990;28;20024;-83
2022/10/21 06:34:32;;;;;;;1.57;0.90;;;16.00;99.90;;;;;;5056422;28;20364;-83
2022/10/21 06:36:58;;;;;;;2.60;0.93;;;16.00;99.90;;;;;;5061882;28;20445;-83
2022/10/21 06:39:24;;;;;;;1.57;1.10;;;16.10;99.90;;;;;;5035731;28;20059;-84
2022/10/21 06:41:49;;;;;;;2.40;1.10;;;16.00;99.90;;;;;;5021241;28;20031;-84
2022/10/21 06:44:15;;;;;;;3.27;1.13;;;16.10;99.90;;;;;;5054241;28;20049;-84
2022/10/21 06:46:40;;;;;;;3.43;1.00;;;16.10;99.90;;;;;;5059165;28;20043;-84
2022/10/21 06:49:06;;;;;;;1.37;0.93;;;16.10;99.90;;;;;;5054494;28;20337;-83
2022/10/21 06:51:32;;;;;;;2.23;1.20;;;16.10;99.90;;;;;;5059909;28;20028;-84
2022/10/21 06:53:58;;;;;;;1.85;1.10;;;16.10;99.90;;;;;;5062179;28;20406;-84
2022/10/21 06:56:25;;;;;;;2.13;1.13;;;16.20;99.90;;;;;;5043220;28;20547;-84
2022/10/21 06:58:51;;;;;;;1.83;1.10;;;16.20;99.90;;;;;;5010529;28;20249;-83
2022/10/21 07:01:23;;;;;;;2.50;1.15;;;16.20;99.90;;;;;;5045569;28;20028;-84
2022/10/21 07:03:49;;;;;;;2.25;1.10;;;16.20;99.90;;;;;;5038145;28;20301;-84
2022/10/21 07:06:15;;;;;;;2.28;1.10;;;16.20;99.90;;;;;;5043810;28;20523;-84
2022/10/21 07:08:42;;;;;;;2.47;1.10;;;16.30;99.90;;;;;;5057104;28;20029;-84
2022/10/21 07:11:09;;;;;;;2.25;1.08;;;16.30;99.90;;;;;;5044018;28;20019;-83
2022/10/21 07:13:35;;;;;;;2.00;1.10;;;16.30;99.90;;;;;;5029864;28;20105;-83
2022/10/21 07:16:06;;;;;;;1.95;1.10;;;16.30;99.90;;;;;;5062254;28;20615;-83
2022/10/21 07:18:33;;;;;;;2.85;1.10;;;16.30;99.90;;;;;;5046570;28;20025;-83
2022/10/21 07:21:04;;;;;;;3.47;1.20;;;16.30;99.90;;;;;;5067401;28;20107;-83
2022/10/21 07:23:29;;;;;;;1.70;1.10;;;16.30;99.90;;;;;;5066740;28;20024;-84
2022/10/21 07:25:55;;;;;;;1.55;1.15;;;16.30;99.90;;;;;;5067801;28;20025;-84
2022/10/21 07:28:20;;;;;;;3.87;1.30;;;16.30;99.90;;;;;;5034889;28;20138;-83
2022/10/21 07:30:47;;;;;;;2.50;1.10;;;16.30;99.90;;;;;;5054659;28;20259;-84
2022/10/21 07:33:13;;;;;;;3.88;1.10;;;16.40;99.90;;;;;;5061099;28;20016;-84
2022/10/21 07:35:39;;;;;;;4.18;1.40;;;16.40;99.90;;;;;;5056649;28;20232;-84
2022/10/21 07:38:04;;;;;;;2.20;1.10;;;16.40;99.90;;;;;;5040588;28;20020;-83
2022/10/21 07:40:30;;;;;;;2.75;1.10;;;16.40;99.90;;;;;;5059071;28;20133;-84
2022/10/21 07:42:57;;;;;;;1.30;0.90;;;16.40;99.90;;;;;;5046415;28;20354;-83
2022/10/21 07:45:23;;;;;;;3.38;1.00;;;16.40;99.90;;;;;;5061507;28;20089;-84
2022/10/21 07:47:48;;;;;;;2.30;1.17;;;16.50;99.90;;;;;;5067934;28;20542;-83
2022/10/21 07:50:15;;;;;;;1.60;1.00;;;16.50;99.90;;;;;;5039739;28;20044;-84
2022/10/21 07:52:44;;;;;;;1.42;1.00;;;16.50;99.90;;;;;;5056966;28;20239;-84
2022/10/21 07:55:15;;;;;;;3.35;1.10;;;16.50;99.90;;;;;;5069238;28;20423;-84
2022/10/21 07:57:41;;;;;;;2.50;1.17;;;16.60;99.90;;;;;;5045509;28;20106;-84
2022/10/21 08:00:09;;;;;;;2.43;1.13;;;16.60;99.90;;;;;;5035288;28;20020;-84
2022/10/21 08:02:35;;;;;;;3.22;1.17;;;16.60;99.90;;;;;;5044072;28;20027;-84
2022/10/21 08:05:01;;;;;;;3.75;1.20;;;16.60;99.90;;;;;;5048752;28;20320;-84
2022/10/21 08:07:28;;;;;;;2.53;1.30;;;16.70;99.90;;;;;;5055705;28;20039;-84
2022/10/21 08:09:54;;;;;;;2.20;1.20;;;16.70;99.90;;;;;;5047623;28;20034;-84
2022/10/21 08:12:19;;;;;;;2.83;1.50;;;16.70;99.90;;;;;;5055903;28;20032;-84
2022/10/21 08:14:45;;;;;;;4.27;1.80;;;16.80;99.90;;;;;;5030028;28;20071;-83
2022/10/21 08:17:10;;;;;;;4.30;1.50;;;16.90;99.90;;;;;;5060594;28;20683;-83
2022/10/21 08:19:36;;;;;;;2.73;1.40;;;16.90;99.90;;;;;;5053021;28;20028;-84
2022/10/21 08:22:02;;;;;;;4.72;2.47;;;16.90;99.90;;;;;;5067895;28;20034;-84
2022/10/21 08:24:27;;;;;;;4.30;1.80;;;17.00;99.90;;;;;;5048222;28;20516;-84
2022/10/21 08:26:53;;;;;;;3.35;1.60;;;17.10;99.90;;;;;;5051563;28;20491;-84
2022/10/21 08:29:19;;;;;;;3.13;1.40;;;17.10;99.90;;;;;;5042061;28;20496;-84
2022/10/21 08:31:45;;;;;;;2.73;1.40;;;17.10;99.90;;;;;;5063947;28;20507;-84
2022/10/21 08:34:11;;;;;;;3.07;1.30;;;17.20;99.90;;;;;;5064067;28;20076;-84
2022/10/21 08:36:37;;;;;;;2.28;1.20;;;17.30;99.90;;;;;;5048654;28;20590;-84
2022/10/21 08:39:03;;;;;;;1.88;1.17;;;17.30;99.90;;;;;;5044433;28;20017;-84
2022/10/21 08:41:29;;;;;;;2.80;1.27;;;17.40;99.90;;;;;;5065849;28;20315;-84
2022/10/21 08:43:59;;;;;;;2.23;1.23;;;17.40;99.90;;;;;;5042019;28;20673;-84
2022/10/21 08:46:43;;;;;;;2.13;1.10;;;17.50;99.90;;;;;;5034788;28;20037;-84
2022/10/21 08:49:30;;;;;;;3.35;1.30;;;17.60;99.90;;;;;;5048072;28;20105;-84
2022/10/21 08:52:03;;;;;;;3.10;1.17;;;17.70;99.90;;;;;;5062031;28;20036;-84
2022/10/21 08:54:50;;;;;;;2.50;1.20;;;17.70;99.90;;;;;;5059495;28;20024;-84
2022/10/21 08:57:16;;;;;;;1.45;1.10;;;17.80;99.90;;;;;;5064787;28;20033;-84
2022/10/21 08:59:42;;;;;;;3.53;1.23;;;17.90;99.90;;;;;;5061634;28;20291;-84
2022/10/21 09:02:20;;;;;;;1.87;1.10;;;18.00;99.90;;;;;;5046080;28;20066;-84
2022/10/21 09:05:16;;;;;;;1.88;1.10;;;18.20;99.90;;;;;;5060194;28;22444;-84
2022/10/21 09:08:01;;;;;;;2.95;1.10;;;18.30;99.90;;;;;;5043215;28;20024;-84
2022/10/21 09:10:54;;;;;;;1.30;1.00;;;18.50;99.90;;;;;;5049864;28;20089;-84
2022/10/21 09:13:53;;;;;;;1.40;1.00;;;18.70;99.90;;;;;;5049048;28;20032;-84
2022/10/21 09:16:42;;;;;;;2.07;0.90;;;18.90;99.90;;;;;;5053176;28;20209;-84
2022/10/21 09:19:38;;;;;;;1.55;0.88;;;19.10;99.90;;;;;;5065096;28;20131;-83
2022/10/21 09:22:25;;;;;;;2.13;0.95;;;19.30;99.90;;;;;;5077445;28;20481;-84
2022/10/21 09:25:04;;;;;;;1.10;0.73;;;19.40;99.90;;;;;;5068275;28;20138;-84
2022/10/21 09:27:30;;;;;;;2.00;0.80;;;19.50;99.90;;;;;;5046945;28;20477;-83
2022/10/21 09:29:59;;;;;;;2.30;0.87;;;19.80;99.90;;;;;;5073922;28;20028;-84
2022/10/21 09:32:30;;;;;;;1.83;0.80;;;20.10;99.90;;;;;;5037812;28;20223;-84
2022/10/21 09:35:02;;;;;;;3.67;1.00;;;20.50;99.90;;;;;;5061529;28;20028;-82
2022/10/21 09:37:36;;;;;;;2.47;0.70;;;20.90;99.90;;;;;;5054977;28;20040;-84
2022/10/21 09:40:14;;;;;;;1.17;0.80;;;21.30;99.90;;;;;;5053212;28;20013;-84
2022/10/21 09:42:40;;;;;;;1.47;0.80;;;21.70;99.90;;;;;;5065557;28;20260;-84
2022/10/21 09:45:20;;;;;;;0.70;0.60;;;22.00;99.90;;;;;;5057315;28;20024;-84
2022/10/21 09:47:57;;;;;;;0.93;0.70;;;22.20;99.90;;;;;;5045602;28;20580;-85
2022/10/21 09:50:24;;;;;;;1.10;0.63;;;22.40;99.90;;;;;;5052132;28;20040;-84
2022/10/21 09:52:58;;;;;;;1.43;0.80;;;22.60;99.90;;;;;;5052911;28;20039;-84
2022/10/21 09:55:26;;;;;;;1.55;0.80;;;22.80;99.90;;;;;;5045210;28;20013;-82
2022/10/21 09:57:57;;;;;;;2.40;0.90;;;22.80;99.90;;;;;;5056844;28;20017;-85
2022/10/21 10:00:41;;;;;;;1.40;0.80;;;22.90;99.90;;;;;;5072399;28;20307;-84
2022/10/21 10:03:07;;;;;;;1.08;0.70;;;22.80;99.90;;;;;;5062011;28;20480;-83
2022/10/21 10:05:39;;;;;;;0.90;0.80;;;22.80;99.90;;;;;;5042777;28;20228;-84
2022/10/21 10:08:34;;;;;;;0.70;0.70;;;22.90;99.90;;;;;;5067060;28;20405;-84
2022/10/21 10:11:20;;;;;;;0.95;0.75;;;22.90;99.90;;;;;;5053913;28;20084;-84
2022/10/21 10:13:49;;;;;;;1.02;0.73;;;23.00;99.90;;;;;;5063006;28;20251;-84
2022/10/21 10:16:21;;;;;;;2.65;0.60;;;23.10;99.90;;;;;;5048538;28;20016;-84
2022/10/21 10:18:48;;;;;;;0.60;0.50;;;23.20;99.90;;;;;;5057282;28;20544;-84
2022/10/21 10:21:16;;;;;;;0.60;0.60;;;23.20;99.90;;;;;;5048430;28;20013;-83
2022/10/21 10:23:53;;;;;;;1.70;0.60;;;23.20;99.90;;;;;;5063113;28;20024;-84
2022/10/21 10:26:32;;;;;;;1.15;0.70;;;23.30;99.90;;;;;;5068806;28;20374;-84
2022/10/21 10:29:09;;;;;;;0.88;0.60;;;23.30;99.90;;;;;;5047418;28;20039;-84
2022/10/21 10:31:35;;;;;;;0.87;0.60;;;23.30;99.90;;;;;;5054278;28;20033;-83
2022/10/21 10:34:07;;;;;;;1.27;0.65;;;23.40;99.90;;;;;;5072650;28;20035;-84
2022/10/21 10:36:38;;;;;;;0.82;0.65;;;23.60;99.90;;;;;;5054109;28;20265;-84
2022/10/21 10:39:07;;;;;;;1.88;0.60;;;23.90;99.90;;;;;;5050025;28;20492;-85
2022/10/21 10:41:38;;;;;;;0.82;0.80;;;24.30;99.90;;;;;;5051554;28;20405;-82
2022/10/21 10:44:11;;;;;;;0.80;0.70;;;24.80;99.90;;;;;;5068444;28;20051;-85
2022/10/21 10:46:38;;;;;;;1.15;0.80;;;25.20;99.90;;;;;;5051749;28;20635;-84
2022/10/21 10:49:17;;;;;;;1.20;0.57;;;25.50;99.90;;;;;;5046014;28;20029;-83
2022/10/21 10:51:46;;;;;;;1.50;0.85;;;25.80;99.90;;;;;;5046903;28;20657;-85
2022/10/21 10:54:22;;;;;;;1.00;0.60;;;25.90;99.90;;;;;;5063294;28;20016;-83
2022/10/21 10:56:55;;;;;;;2.60;0.80;;;26.00;99.90;;;;;;5064606;28;20114;-85
2022/10/21 10:59:26;;;;;;;1.50;0.80;;;25.90;99.90;;;;;;5062952;28;20028;-84
2022/10/21 11:02:20;;;;;;;0.82;0.80;;;25.80;99.90;;;;;;5075744;28;20063;-82
2022/10/21 11:05:37;;;;;;;0.80;0.80;;;25.80;99.10;;;;;;5063219;28;20032;-85
2022/10/21 11:08:13;;;;;;;0.80;0.70;;;25.60;98.30;;;;;;5029037;28;20328;-84
2022/10/21 11:10:45;;;;;;;0.90;0.67;;;25.50;98.20;;;;;;5050326;28;20054;-84
2022/10/21 11:13:15;;;;;;;1.08;0.70;;;25.50;99.50;;;;;;5076389;28;20024;-84
2022/10/21 11:15:59;;;;;;;0.77;0.70;;;25.40;99.90;;;;;;5049864;28;20220;-83
2022/10/21 11:18:39;;;;;;;2.08;0.90;;;25.40;99.50;;;;;;5044006;28;20029;-86
2022/10/21 11:21:30;;;;;;;1.25;0.82;;;25.50;99.90;;;;;;5064310;28;20082;-86
2022/10/21 11:24:04;;;;;;;0.77;0.70;;;25.70;99.80;;;;;;5065844;28;20343;-85
2022/10/21 11:27:07;;;;;;;1.10;0.80;;;25.70;98.90;;;;;;5049592;28;20035;-83
2022/10/21 11:29:50;;;;;;;1.23;0.90;;;25.80;98.20;;;;;;5060025;28;20397;-85
2022/10/21 11:32:34;;;;;;;1.42;0.70;;;25.70;98.10;;;;;;5043629;28;20034;-85
2022/10/21 11:35:20;;;;;;;0.93;0.70;;;25.60;98.30;;;;;;5040834;28;20484;-84
2022/10/21 11:38:18;;;;;;;1.23;0.80;;;25.60;97.70;;;;;;5028139;28;20216;-84
2022/10/21 11:40:58;;;;;;;0.95;0.70;;;25.50;98.10;;;;;;5036232;28;20642;-84
2022/10/21 11:43:48;;;;;;;0.95;0.80;;;25.60;98.90;;;;;;5059843;28;20037;-85
2022/10/21 11:46:31;;;;;;;2.03;0.80;;;25.60;99.90;;;;;;5049366;28;20060;-85
2022/10/21 11:49:06;;;;;;;0.63;0.60;;;25.60;98.70;;;;;;5046922;28;20028;-84
2022/10/21 11:52:03;;;;;;;0.87;0.80;;;25.60;98.30;;;;;;5038725;28;20542;-84
2022/10/21 11:54:29;;;;;;;1.20;0.70;;;25.70;99.90;;;;;;4983699;28;20049;-85
2022/10/21 11:57:02;;;;;;;2.07;0.70;;;26.10;99.90;;;;;;5049597;28;20023;-84
2022/10/21 11:59:43;;;;;;;0.85;0.63;;;26.50;99.90;;;;;;5053369;28;20037;-84
2022/10/21 12:02:13;;;;;;;0.80;0.77;;;27.10;99.90;;;;;;5071639;28;20032;-84
2022/10/21 12:05:05;;;;;;;0.82;0.80;;;27.50;99.90;;;;;;5049080;28;20329;-85
2022/10/21 12:08:01;;;;;;;1.23;1.00;;;28.10;99.90;;;;;;5018457;28;20529;-86
2022/10/21 12:10:49;;;;;;;1.47;0.70;;;28.50;99.90;;;;;;5033241;28;20020;-84
2022/10/21 12:13:22;;;;;;;1.02;0.90;;;28.90;99.90;;;;;;5040396;28;20550;-85
2022/10/21 12:15:57;;;;;;;1.55;1.00;;;29.20;99.90;;;;;;5060304;28;20020;-84
2022/10/21 12:18:26;;;;;;;1.63;1.00;;;29.50;98.10;;;;;;5049408;28;20028;-85
2022/10/21 12:20:53;;;;;;;1.10;1.00;;;29.60;98.40;;;;;;5070160;28;20133;-85
2022/10/21 12:23:28;;;;;;;1.10;0.80;;;29.70;97.60;;;;;;5054473;28;20035;-85
2022/10/21 12:26:20;;;;;;;1.30;1.00;;;29.70;96.20;;;;;;5052277;28;20027;-83
2022/10/21 12:29:10;;;;;;;0.88;0.80;;;29.70;93.60;;;;;;5053239;28;20023;-84
2022/10/21 12:32:02;;;;;;;2.20;0.90;;;29.80;95.30;;;;;;5080527;28;20472;-85
2022/10/21 12:34:28;;;;;;;1.20;1.00;;;29.90;94.60;;;;;;5052012;28;20062;-85
2022/10/21 12:36:54;;;;;;;1.40;0.90;;;30.00;97.90;;;;;;5039136;28;20503;-84
2022/10/21 12:39:32;;;;;;;1.10;0.80;;;30.20;98.10;;;;;;5052907;28;20215;-85
2022/10/21 12:42:12;;;;;;;1.25;0.80;;;30.40;95.50;;;;;;5053580;28;20365;-84
2022/10/21 12:44:43;;;;;;;1.20;1.00;;;30.50;96.40;;;;;;5062060;28;20035;-84
2022/10/21 12:47:44;;;;;;;1.47;0.80;;;30.50;96.30;;;;;;5059083;28;20254;-85
2022/10/21 12:50:12;;;;;;;1.10;1.00;;;30.60;92.30;;;;;;5028676;28;20121;-85
2022/10/21 12:52:40;;;;;;;1.25;0.85;;;30.60;93.90;;;;;;5056077;28;20051;-87
2022/10/21 12:55:26;;;;;;;1.02;0.93;;;30.50;95.70;;;;;;5041848;28;20327;-84
2022/10/21 12:57:59;;;;;;;1.73;1.10;;;30.60;94.30;;;;;;5051610;28;20133;-86
2022/10/21 13:00:27;;;;;;;1.50;0.90;;;30.70;93.60;;;;;;5069207;28;20073;-85
2022/10/21 13:03:06;;;;;;;1.20;1.10;;;30.70;93.20;;;;;;5060586;28;20025;-85
2022/10/21 13:05:38;;;;;;;1.13;1.00;;;30.70;93.10;;;;;;5057094;28;20028;-86
2022/10/21 13:08:19;;;;;;;1.27;0.98;;;30.80;92.80;;;;;;5065894;28;20561;-85
2022/10/21 13:11:19;;;;;;;1.27;0.95;;;30.80;93.20;;;;;;5053401;28;20108;-85